< < Back
Terminal Aerodrome Forecast


Current Version              Previous Versions:   1  2  3  4  5  6  7  8  9  

Terminal Aerodrome Forecast

099
FTUS42 KFFC 310738 AAA
TAFATL
TAF AMD
KATL 310738Z 3108/0112 03005KT P6SM FEW250
     FM311400 07006KT P6SM FEW050
     FM311800 34006KT P6SM SCT060
     FM010100 06004KT P6SM SCT100=



Latest METAR

156
SAUS70 KWBC 311400 RRL
MTRATL
METAR KATL 311352Z 10006KT 10SM BKN250 27/18 A3000 RMK AO2 SLP146
T02670178


USA.gov is the U.S. government's official web portal to all federal, state and local government web resources and services.